sensor_id;sensor_type;location;lat;lon;timestamp;P1;durP1;ratioP1;P2;durP2;ratioP2
21825;SDS011;11075;47.944;11.776;2023-09-19T00:00:44;6.88;;;1.00;;
21825;SDS011;11075;47.944;11.776;2023-09-19T00:03:14;4.68;;;1.27;;
21825;SDS011;11075;47.944;11.776;2023-09-19T00:05:41;1.98;;;1.00;;
21825;SDS011;11075;47.944;11.776;2023-09-19T00:08:12;2.78;;;1.80;;
21825;SDS011;11075;47.944;11.776;2023-09-19T00:10:40;3.85;;;0.90;;
21825;SDS011;11075;47.944;11.776;2023-09-19T00:13:09;2.70;;;1.27;;
21825;SDS011;11075;47.944;11.776;2023-09-19T00:15:46;2.03;;;1.10;;
21825;SDS011;11075;47.944;11.776;2023-09-19T00:18:18;2.92;;;1.17;;
21825;SDS011;11075;47.944;11.776;2023-09-19T00:20:50;3.83;;;1.00;;
21825;SDS011;11075;47.944;11.776;2023-09-19T00:23:19;3.90;;;1.30;;
21825;SDS011;11075;47.944;11.776;2023-09-19T00:25:46;3.30;;;1.25;;
21825;SDS011;11075;47.944;11.776;2023-09-19T00:28:14;4.05;;;1.35;;
21825;SDS011;11075;47.944;11.776;2023-09-19T00:30:42;4.57;;;1.20;;
21825;SDS011;11075;47.944;11.776;2023-09-19T00:33:10;3.67;;;1.25;;
21825;SDS011;11075;47.944;11.776;2023-09-19T00:35:46;3.60;;;1.17;;
21825;SDS011;11075;47.944;11.776;2023-09-19T00:38:17;3.63;;;1.05;;
21825;SDS011;11075;47.944;11.776;2023-09-19T00:40:48;7.50;;;1.40;;
21825;SDS011;11075;47.944;11.776;2023-09-19T00:43:15;3.38;;;0.93;;
21825;SDS011;11075;47.944;11.776;2023-09-19T00:45:44;3.45;;;1.00;;
21825;SDS011;11075;47.944;11.776;2023-09-19T00:48:12;7.28;;;1.95;;
21825;SDS011;11075;47.944;11.776;2023-09-19T00:50:39;2.20;;;1.05;;
21825;SDS011;11075;47.944;11.776;2023-09-19T00:53:09;2.45;;;0.90;;
21825;SDS011;11075;47.944;11.776;2023-09-19T00:55:40;5.07;;;1.30;;
21825;SDS011;11075;47.944;11.776;2023-09-19T00:58:09;2.20;;;1.20;;
21825;SDS011;11075;47.944;11.776;2023-09-19T01:00:37;8.35;;;1.15;;
21825;SDS011;11075;47.944;11.776;2023-09-19T01:03:05;8.10;;;0.90;;
21825;SDS011;11075;47.944;11.776;2023-09-19T01:05:33;1.23;;;1.00;;
21825;SDS011;11075;47.944;11.776;2023-09-19T01:08:00;6.45;;;1.13;;
21825;SDS011;11075;47.944;11.776;2023-09-19T01:10:27;1.15;;;1.05;;
21825;SDS011;11075;47.944;11.776;2023-09-19T01:18:20;3.25;;;0.85;;
21825;SDS011;11075;47.944;11.776;2023-09-19T01:21:19;3.03;;;1.00;;
21825;SDS011;11075;47.944;11.776;2023-09-19T01:24:00;0.98;;;0.80;;
21825;SDS011;11075;47.944;11.776;2023-09-19T01:29:34;7.93;;;1.35;;
21825;SDS011;11075;47.944;11.776;2023-09-19T01:32:06;3.60;;;1.17;;
21825;SDS011;11075;47.944;11.776;2023-09-19T01:34:49;6.10;;;1.58;;
21825;SDS011;11075;47.944;11.776;2023-09-19T01:37:25;0.90;;;0.90;;
21825;SDS011;11075;47.944;11.776;2023-09-19T01:40:02;1.67;;;1.20;;
21825;SDS011;11075;47.944;11.776;2023-09-19T01:42:35;4.90;;;1.15;;
21825;SDS011;11075;47.944;11.776;2023-09-19T01:45:13;5.60;;;1.38;;
21825;SDS011;11075;47.944;11.776;2023-09-19T01:47:52;3.25;;;1.10;;
21825;SDS011;11075;47.944;11.776;2023-09-19T01:55:54;2.38;;;1.00;;
21825;SDS011;11075;47.944;11.776;2023-09-19T02:01:11;2.50;;;1.15;;
21825;SDS011;11075;47.944;11.776;2023-09-19T02:03:44;3.42;;;1.00;;
21825;SDS011;11075;47.944;11.776;2023-09-19T02:06:14;2.67;;;1.10;;
21825;SDS011;11075;47.944;11.776;2023-09-19T02:08:42;1.98;;;1.27;;
21825;SDS011;11075;47.944;11.776;2023-09-19T02:11:09;3.72;;;1.40;;
21825;SDS011;11075;47.944;11.776;2023-09-19T02:13:36;3.50;;;1.60;;
21825;SDS011;11075;47.944;11.776;2023-09-19T02:16:04;4.40;;;1.30;;
21825;SDS011;11075;47.944;11.776;2023-09-19T02:18:32;1.55;;;1.38;;
21825;SDS011;11075;47.944;11.776;2023-09-19T02:21:02;3.42;;;1.25;;
21825;SDS011;11075;47.944;11.776;2023-09-19T02:23:30;1.80;;;1.30;;
21825;SDS011;11075;47.944;11.776;2023-09-19T02:25:57;4.47;;;1.45;;
21825;SDS011;11075;47.944;11.776;2023-09-19T02:28:24;3.75;;;1.42;;
21825;SDS011;11075;47.944;11.776;2023-09-19T02:30:52;3.50;;;1.45;;
21825;SDS011;11075;47.944;11.776;2023-09-19T02:33:18;4.95;;;1.27;;
21825;SDS011;11075;47.944;11.776;2023-09-19T02:35:45;6.15;;;1.33;;
21825;SDS011;11075;47.944;11.776;2023-09-19T02:38:12;2.42;;;1.50;;
21825;SDS011;11075;47.944;11.776;2023-09-19T02:40:41;3.63;;;1.65;;
21825;SDS011;11075;47.944;11.776;2023-09-19T02:43:09;3.33;;;1.20;;
21825;SDS011;11075;47.944;11.776;2023-09-19T02:45:37;2.45;;;1.25;;
21825;SDS011;11075;47.944;11.776;2023-09-19T02:48:04;2.63;;;1.40;;
21825;SDS011;11075;47.944;11.776;2023-09-19T02:50:31;3.63;;;1.95;;
21825;SDS011;11075;47.944;11.776;2023-09-19T02:52:58;1.77;;;1.30;;
21825;SDS011;11075;47.944;11.776;2023-09-19T02:55:25;6.05;;;1.30;;
21825;SDS011;11075;47.944;11.776;2023-09-19T02:57:53;1.75;;;1.33;;
21825;SDS011;11075;47.944;11.776;2023-09-19T03:00:24;2.28;;;1.20;;
21825;SDS011;11075;47.944;11.776;2023-09-19T03:02:52;3.20;;;1.38;;
21825;SDS011;11075;47.944;11.776;2023-09-19T03:05:21;3.50;;;1.38;;
21825;SDS011;11075;47.944;11.776;2023-09-19T03:07:53;2.88;;;1.30;;
21825;SDS011;11075;47.944;11.776;2023-09-19T03:10:22;3.50;;;1.33;;
21825;SDS011;11075;47.944;11.776;2023-09-19T03:12:52;4.53;;;1.20;;
21825;SDS011;11075;47.944;11.776;2023-09-19T03:15:18;1.50;;;1.00;;
21825;SDS011;11075;47.944;11.776;2023-09-19T03:17:48;2.67;;;1.25;;
21825;SDS011;11075;47.944;11.776;2023-09-19T03:20:19;2.03;;;1.42;;
21825;SDS011;11075;47.944;11.776;2023-09-19T03:22:48;1.23;;;0.90;;
21825;SDS011;11075;47.944;11.776;2023-09-19T03:25:15;3.22;;;1.13;;
21825;SDS011;11075;47.944;11.776;2023-09-19T03:27:47;3.35;;;1.60;;
21825;SDS011;11075;47.944;11.776;2023-09-19T03:30:14;3.33;;;1.38;;
21825;SDS011;11075;47.944;11.776;2023-09-19T03:32:48;2.95;;;1.40;;
21825;SDS011;11075;47.944;11.776;2023-09-19T03:35:18;3.13;;;1.42;;
21825;SDS011;11075;47.944;11.776;2023-09-19T03:37:46;3.58;;;1.30;;
21825;SDS011;11075;47.944;11.776;2023-09-19T03:40:14;2.20;;;1.02;;
21825;SDS011;11075;47.944;11.776;2023-09-19T03:42:42;1.65;;;1.30;;
21825;SDS011;11075;47.944;11.776;2023-09-19T03:45:12;3.85;;;1.10;;
21825;SDS011;11075;47.944;11.776;2023-09-19T03:47:44;2.65;;;1.45;;
21825;SDS011;11075;47.944;11.776;2023-09-19T03:50:16;4.68;;;1.33;;
21825;SDS011;11075;47.944;11.776;2023-09-19T03:52:44;3.70;;;1.30;;
21825;SDS011;11075;47.944;11.776;2023-09-19T03:55:11;3.70;;;1.23;;
21825;SDS011;11075;47.944;11.776;2023-09-19T03:57:39;2.63;;;1.13;;
21825;SDS011;11075;47.944;11.776;2023-09-19T04:00:07;2.80;;;1.55;;
21825;SDS011;11075;47.944;11.776;2023-09-19T04:02:38;1.35;;;1.17;;
21825;SDS011;11075;47.944;11.776;2023-09-19T04:05:06;7.20;;;3.15;;
21825;SDS011;11075;47.944;11.776;2023-09-19T04:07:34;2.72;;;1.80;;
21825;SDS011;11075;47.944;11.776;2023-09-19T04:10:01;3.88;;;1.33;;
21825;SDS011;11075;47.944;11.776;2023-09-19T04:12:29;1.65;;;1.50;;
21825;SDS011;11075;47.944;11.776;2023-09-19T04:14:56;2.83;;;1.15;;
21825;SDS011;11075;47.944;11.776;2023-09-19T04:17:23;2.40;;;1.30;;
21825;SDS011;11075;47.944;11.776;2023-09-19T04:19:51;6.55;;;1.52;;
21825;SDS011;11075;47.944;11.776;2023-09-19T04:22:17;2.15;;;1.20;;
21825;SDS011;11075;47.944;11.776;2023-09-19T04:24:45;9.77;;;1.60;;
21825;SDS011;11075;47.944;11.776;2023-09-19T04:27:12;4.65;;;1.60;;
21825;SDS011;11075;47.944;11.776;2023-09-19T04:29:41;2.85;;;1.33;;
21825;SDS011;11075;47.944;11.776;2023-09-19T04:32:10;1.35;;;1.10;;
21825;SDS011;11075;47.944;11.776;2023-09-19T04:34:39;3.63;;;2.15;;
21825;SDS011;11075;47.944;11.776;2023-09-19T04:37:06;2.35;;;1.27;;
21825;SDS011;11075;47.944;11.776;2023-09-19T04:39:34;4.47;;;1.58;;
21825;SDS011;11075;47.944;11.776;2023-09-19T04:42:00;2.72;;;1.70;;
21825;SDS011;11075;47.944;11.776;2023-09-19T04:44:27;4.90;;;1.38;;
21825;SDS011;11075;47.944;11.776;2023-09-19T04:46:54;4.22;;;1.42;;
21825;SDS011;11075;47.944;11.776;2023-09-19T04:49:21;5.72;;;1.50;;
21825;SDS011;11075;47.944;11.776;2023-09-19T04:51:48;1.83;;;1.20;;
21825;SDS011;11075;47.944;11.776;2023-09-19T04:54:15;1.80;;;1.48;;
21825;SDS011;11075;47.944;11.776;2023-09-19T04:56:42;3.15;;;1.50;;
21825;SDS011;11075;47.944;11.776;2023-09-19T04:59:09;1.20;;;1.10;;
21825;SDS011;11075;47.944;11.776;2023-09-19T05:01:37;2.03;;;1.30;;
21825;SDS011;11075;47.944;11.776;2023-09-19T05:04:04;1.45;;;1.35;;
21825;SDS011;11075;47.944;11.776;2023-09-19T05:06:31;5.70;;;1.30;;
21825;SDS011;11075;47.944;11.776;2023-09-19T05:09:00;5.60;;;1.30;;
21825;SDS011;11075;47.944;11.776;2023-09-19T05:11:26;2.05;;;1.10;;
21825;SDS011;11075;47.944;11.776;2023-09-19T05:13:53;2.95;;;1.55;;
21825;SDS011;11075;47.944;11.776;2023-09-19T05:16:21;1.73;;;1.02;;
21825;SDS011;11075;47.944;11.776;2023-09-19T05:18:48;4.07;;;1.23;;
21825;SDS011;11075;47.944;11.776;2023-09-19T05:21:16;1.83;;;1.10;;
21825;SDS011;11075;47.944;11.776;2023-09-19T05:23:44;3.50;;;1.00;;
21825;SDS011;11075;47.944;11.776;2023-09-19T05:26:11;2.80;;;1.17;;
21825;SDS011;11075;47.944;11.776;2023-09-19T05:28:39;5.03;;;1.30;;
21825;SDS011;11075;47.944;11.776;2023-09-19T05:31:05;2.92;;;1.20;;
21825;SDS011;11075;47.944;11.776;2023-09-19T05:33:32;3.30;;;1.10;;
21825;SDS011;11075;47.944;11.776;2023-09-19T05:35:59;2.03;;;0.93;;
21825;SDS011;11075;47.944;11.776;2023-09-19T05:38:26;4.53;;;1.00;;
21825;SDS011;11075;47.944;11.776;2023-09-19T05:43:45;3.45;;;0.88;;
21825;SDS011;11075;47.944;11.776;2023-09-19T05:46:16;5.32;;;1.00;;
21825;SDS011;11075;47.944;11.776;2023-09-19T05:48:44;4.30;;;1.00;;
21825;SDS011;11075;47.944;11.776;2023-09-19T05:51:11;2.13;;;0.98;;
21825;SDS011;11075;47.944;11.776;2023-09-19T05:53:37;1.80;;;1.20;;
21825;SDS011;11075;47.944;11.776;2023-09-19T05:56:05;1.60;;;1.25;;
21825;SDS011;11075;47.944;11.776;2023-09-19T05:58:31;1.30;;;0.98;;
21825;SDS011;11075;47.944;11.776;2023-09-19T06:00:59;6.32;;;1.15;;
21825;SDS011;11075;47.944;11.776;2023-09-19T06:03:25;2.78;;;1.35;;
21825;SDS011;11075;47.944;11.776;2023-09-19T06:05:52;6.28;;;1.20;;
21825;SDS011;11075;47.944;11.776;2023-09-19T06:08:23;1.40;;;0.80;;
21825;SDS011;11075;47.944;11.776;2023-09-19T06:10:50;4.63;;;0.90;;
21825;SDS011;11075;47.944;11.776;2023-09-19T06:13:18;1.52;;;0.93;;
21825;SDS011;11075;47.944;11.776;2023-09-19T06:15:46;2.83;;;0.93;;
21825;SDS011;11075;47.944;11.776;2023-09-19T06:18:13;0.93;;;0.82;;
21825;SDS011;11075;47.944;11.776;2023-09-19T06:20:43;1.52;;;0.75;;
21825;SDS011;11075;47.944;11.776;2023-09-19T06:23:11;1.45;;;1.20;;
21825;SDS011;11075;47.944;11.776;2023-09-19T06:25:38;2.88;;;1.10;;
21825;SDS011;11075;47.944;11.776;2023-09-19T06:28:06;1.33;;;0.80;;
21825;SDS011;11075;47.944;11.776;2023-09-19T06:30:34;5.05;;;1.30;;
21825;SDS011;11075;47.944;11.776;2023-09-19T06:33:02;2.92;;;0.90;;
21825;SDS011;11075;47.944;11.776;2023-09-19T06:35:31;2.00;;;0.90;;
21825;SDS011;11075;47.944;11.776;2023-09-19T06:38:02;2.25;;;0.85;;
21825;SDS011;11075;47.944;11.776;2023-09-19T06:40:30;1.73;;;0.95;;
21825;SDS011;11075;47.944;11.776;2023-09-19T06:42:57;1.63;;;0.80;;
21825;SDS011;11075;47.944;11.776;2023-09-19T06:45:24;1.25;;;0.82;;
21825;SDS011;11075;47.944;11.776;2023-09-19T06:47:54;1.05;;;0.80;;
21825;SDS011;11075;47.944;11.776;2023-09-19T06:50:25;0.82;;;0.82;;
21825;SDS011;11075;47.944;11.776;2023-09-19T06:52:53;1.77;;;0.63;;
21825;SDS011;11075;47.944;11.776;2023-09-19T06:55:22;1.38;;;0.60;;
21825;SDS011;11075;47.944;11.776;2023-09-19T06:57:51;2.38;;;0.90;;
21825;SDS011;11075;47.944;11.776;2023-09-19T07:00:21;1.33;;;0.90;;
21825;SDS011;11075;47.944;11.776;2023-09-19T07:02:58;3.83;;;0.85;;
21825;SDS011;11075;47.944;11.776;2023-09-19T07:05:32;2.90;;;0.80;;
21825;SDS011;11075;47.944;11.776;2023-09-19T07:08:00;2.78;;;0.77;;
21825;SDS011;11075;47.944;11.776;2023-09-19T07:10:28;1.02;;;0.70;;
21825;SDS011;11075;47.944;11.776;2023-09-19T07:15:24;2.88;;;0.90;;
21825;SDS011;11075;47.944;11.776;2023-09-19T07:17:55;1.60;;;0.70;;
21825;SDS011;11075;47.944;11.776;2023-09-19T07:20:23;2.97;;;0.70;;
21825;SDS011;11075;47.944;11.776;2023-09-19T07:22:53;3.35;;;0.60;;
21825;SDS011;11075;47.944;11.776;2023-09-19T07:25:29;3.05;;;0.70;;
21825;SDS011;11075;47.944;11.776;2023-09-19T07:27:59;2.03;;;0.90;;
21825;SDS011;11075;47.944;11.776;2023-09-19T07:30:27;2.55;;;0.57;;
21825;SDS011;11075;47.944;11.776;2023-09-19T07:32:55;2.35;;;0.70;;
21825;SDS011;11075;47.944;11.776;2023-09-19T07:35:22;5.15;;;1.05;;
21825;SDS011;11075;47.944;11.776;2023-09-19T07:37:49;2.63;;;0.70;;
21825;SDS011;11075;47.944;11.776;2023-09-19T07:40:18;1.08;;;0.68;;
21825;SDS011;11075;47.944;11.776;2023-09-19T07:42:47;0.85;;;0.70;;
21825;SDS011;11075;47.944;11.776;2023-09-19T07:45:14;2.97;;;0.75;;
21825;SDS011;11075;47.944;11.776;2023-09-19T07:47:44;0.80;;;0.80;;
21825;SDS011;11075;47.944;11.776;2023-09-19T07:50:12;1.77;;;0.90;;
21825;SDS011;11075;47.944;11.776;2023-09-19T07:52:40;1.42;;;0.60;;
21825;SDS011;11075;47.944;11.776;2023-09-19T07:55:06;3.55;;;0.80;;
21825;SDS011;11075;47.944;11.776;2023-09-19T07:57:37;3.45;;;1.05;;
21825;SDS011;11075;47.944;11.776;2023-09-19T08:00:04;1.90;;;0.90;;
21825;SDS011;11075;47.944;11.776;2023-09-19T08:02:42;4.53;;;0.77;;
21825;SDS011;11075;47.944;11.776;2023-09-19T08:05:11;32.97;;;2.60;;
21825;SDS011;11075;47.944;11.776;2023-09-19T08:07:42;1.25;;;0.55;;
21825;SDS011;11075;47.944;11.776;2023-09-19T08:10:15;4.07;;;0.68;;
21825;SDS011;11075;47.944;11.776;2023-09-19T08:12:43;1.13;;;0.70;;
21825;SDS011;11075;47.944;11.776;2023-09-19T08:15:14;3.03;;;0.77;;
21825;SDS011;11075;47.944;11.776;2023-09-19T08:17:42;1.08;;;0.70;;
21825;SDS011;11075;47.944;11.776;2023-09-19T08:20:09;0.60;;;0.60;;
21825;SDS011;11075;47.944;11.776;2023-09-19T08:22:43;2.05;;;0.90;;
21825;SDS011;11075;47.944;11.776;2023-09-19T08:25:15;0.82;;;0.60;;
21825;SDS011;11075;47.944;11.776;2023-09-19T08:27:45;3.90;;;0.60;;
21825;SDS011;11075;47.944;11.776;2023-09-19T08:30:16;2.33;;;0.82;;
21825;SDS011;11075;47.944;11.776;2023-09-19T08:32:44;2.28;;;0.80;;
21825;SDS011;11075;47.944;11.776;2023-09-19T08:35:12;0.98;;;0.60;;
21825;SDS011;11075;47.944;11.776;2023-09-19T08:37:41;1.63;;;0.77;;
21825;SDS011;11075;47.944;11.776;2023-09-19T08:40:09;0.70;;;0.60;;
21825;SDS011;11075;47.944;11.776;2023-09-19T08:42:49;1.70;;;0.70;;
21825;SDS011;11075;47.944;11.776;2023-09-19T08:45:21;2.95;;;0.73;;
21825;SDS011;11075;47.944;11.776;2023-09-19T08:48:03;1.30;;;0.82;;
21825;SDS011;11075;47.944;11.776;2023-09-19T08:50:53;0.90;;;0.70;;
21825;SDS011;11075;47.944;11.776;2023-09-19T08:56:09;0.80;;;0.50;;
21825;SDS011;11075;47.944;11.776;2023-09-19T09:01:36;4.82;;;1.00;;
21825;SDS011;11075;47.944;11.776;2023-09-19T09:04:08;1.05;;;0.60;;
21825;SDS011;11075;47.944;11.776;2023-09-19T09:06:40;1.05;;;0.52;;
21825;SDS011;11075;47.944;11.776;2023-09-19T09:09:09;0.55;;;0.40;;
21825;SDS011;11075;47.944;11.776;2023-09-19T09:11:37;0.85;;;0.50;;
21825;SDS011;11075;47.944;11.776;2023-09-19T09:14:06;2.10;;;0.50;;
21825;SDS011;11075;47.944;11.776;2023-09-19T09:16:34;5.15;;;0.70;;
21825;SDS011;11075;47.944;11.776;2023-09-19T09:19:01;3.17;;;0.55;;
21825;SDS011;11075;47.944;11.776;2023-09-19T09:21:28;3.75;;;0.77;;
21825;SDS011;11075;47.944;11.776;2023-09-19T09:23:54;1.02;;;0.73;;
21825;SDS011;11075;47.944;11.776;2023-09-19T09:29:03;2.10;;;0.65;;
21825;SDS011;11075;47.944;11.776;2023-09-19T09:31:30;1.38;;;0.45;;
21825;SDS011;11075;47.944;11.776;2023-09-19T09:33:58;2.03;;;0.50;;
21825;SDS011;11075;47.944;11.776;2023-09-19T09:36:37;1.30;;;0.55;;
21825;SDS011;11075;47.944;11.776;2023-09-19T09:39:07;1.50;;;0.60;;
21825;SDS011;11075;47.944;11.776;2023-09-19T09:41:45;0.82;;;0.52;;
21825;SDS011;11075;47.944;11.776;2023-09-19T09:44:14;1.02;;;0.55;;
21825;SDS011;11075;47.944;11.776;2023-09-19T09:46:42;1.10;;;0.60;;
21825;SDS011;11075;47.944;11.776;2023-09-19T09:49:26;0.52;;;0.43;;
21825;SDS011;11075;47.944;11.776;2023-09-19T09:52:06;1.52;;;0.50;;
21825;SDS011;11075;47.944;11.776;2023-09-19T09:54:37;0.90;;;0.50;;
21825;SDS011;11075;47.944;11.776;2023-09-19T09:57:05;1.15;;;0.55;;
21825;SDS011;11075;47.944;11.776;2023-09-19T10:02:28;1.30;;;0.50;;
21825;SDS011;11075;47.944;11.776;2023-09-19T10:05:00;1.10;;;0.65;;
21825;SDS011;11075;47.944;11.776;2023-09-19T10:07:57;1.88;;;0.70;;
21825;SDS011;11075;47.944;11.776;2023-09-19T10:10:39;1.08;;;0.60;;
21825;SDS011;11075;47.944;11.776;2023-09-19T10:13:13;0.90;;;0.70;;
21825;SDS011;11075;47.944;11.776;2023-09-19T10:15:48;1.40;;;0.57;;
21825;SDS011;11075;47.944;11.776;2023-09-19T10:18:25;1.83;;;0.70;;
21825;SDS011;11075;47.944;11.776;2023-09-19T10:20:54;2.15;;;0.80;;
21825;SDS011;11075;47.944;11.776;2023-09-19T10:23:23;0.60;;;0.30;;
21825;SDS011;11075;47.944;11.776;2023-09-19T10:25:55;0.95;;;0.55;;
21825;SDS011;11075;47.944;11.776;2023-09-19T10:28:24;0.95;;;0.60;;
21825;SDS011;11075;47.944;11.776;2023-09-19T10:30:55;1.75;;;0.65;;
21825;SDS011;11075;47.944;11.776;2023-09-19T10:33:24;1.45;;;0.80;;
21825;SDS011;11075;47.944;11.776;2023-09-19T10:35:58;1.85;;;0.60;;
21825;SDS011;11075;47.944;11.776;2023-09-19T10:38:26;0.68;;;0.55;;
21825;SDS011;11075;47.944;11.776;2023-09-19T10:40:56;1.60;;;0.70;;
21825;SDS011;11075;47.944;11.776;2023-09-19T10:43:31;0.60;;;0.50;;
21825;SDS011;11075;47.944;11.776;2023-09-19T10:46:03;2.90;;;0.60;;
21825;SDS011;11075;47.944;11.776;2023-09-19T10:48:34;1.95;;;0.60;;
21825;SDS011;11075;47.944;11.776;2023-09-19T10:51:12;1.30;;;0.75;;
21825;SDS011;11075;47.944;11.776;2023-09-19T10:54:04;1.98;;;0.65;;
21825;SDS011;11075;47.944;11.776;2023-09-19T10:56:35;0.90;;;0.65;;
21825;SDS011;11075;47.944;11.776;2023-09-19T10:59:14;1.95;;;0.88;;
21825;SDS011;11075;47.944;11.776;2023-09-19T11:01:45;1.15;;;0.70;;
21825;SDS011;11075;47.944;11.776;2023-09-19T11:15:03;1.30;;;0.68;;
21825;SDS011;11075;47.944;11.776;2023-09-19T11:17:40;1.05;;;0.60;;
21825;SDS011;11075;47.944;11.776;2023-09-19T11:30:34;1.40;;;0.60;;
21825;SDS011;11075;47.944;11.776;2023-09-19T11:33:25;0.73;;;0.57;;
21825;SDS011;11075;47.944;11.776;2023-09-19T11:43:53;1.42;;;0.60;;
21825;SDS011;11075;47.944;11.776;2023-09-19T11:46:53;1.05;;;0.60;;
21825;SDS011;11075;47.944;11.776;2023-09-19T11:49:31;3.08;;;0.75;;
21825;SDS011;11075;47.944;11.776;2023-09-19T11:52:00;0.98;;;0.65;;
21825;SDS011;11075;47.944;11.776;2023-09-19T11:54:29;1.63;;;0.90;;
21825;SDS011;11075;47.944;11.776;2023-09-19T11:56:58;0.50;;;0.50;;
21825;SDS011;11075;47.944;11.776;2023-09-19T11:59:27;2.05;;;0.95;;
21825;SDS011;11075;47.944;11.776;2023-09-19T12:01:56;0.40;;;0.40;;
21825;SDS011;11075;47.944;11.776;2023-09-19T12:04:42;0.70;;;0.60;;
21825;SDS011;11075;47.944;11.776;2023-09-19T12:07:12;2.38;;;0.60;;
21825;SDS011;11075;47.944;11.776;2023-09-19T12:09:47;1.42;;;0.60;;
21825;SDS011;11075;47.944;11.776;2023-09-19T12:12:23;8.30;;;1.42;;
21825;SDS011;11075;47.944;11.776;2023-09-19T12:14:53;1.23;;;0.70;;
21825;SDS011;11075;47.944;11.776;2023-09-19T12:17:23;1.75;;;0.60;;
21825;SDS011;11075;47.944;11.776;2023-09-19T12:20:02;1.33;;;0.57;;
21825;SDS011;11075;47.944;11.776;2023-09-19T12:22:43;0.70;;;0.60;;
21825;SDS011;11075;47.944;11.776;2023-09-19T12:25:15;1.92;;;0.65;;
21825;SDS011;11075;47.944;11.776;2023-09-19T12:27:45;3.00;;;0.80;;
21825;SDS011;11075;47.944;11.776;2023-09-19T12:30:19;3.30;;;0.68;;
21825;SDS011;11075;47.944;11.776;2023-09-19T12:32:54;1.10;;;0.60;;
21825;SDS011;11075;47.944;11.776;2023-09-19T12:37:57;5.32;;;0.77;;
21825;SDS011;11075;47.944;11.776;2023-09-19T12:40:25;1.55;;;0.43;;
21825;SDS011;11075;47.944;11.776;2023-09-19T12:42:56;1.30;;;0.60;;
21825;SDS011;11075;47.944;11.776;2023-09-19T12:45:25;4.65;;;0.65;;
21825;SDS011;11075;47.944;11.776;2023-09-19T12:53:43;2.72;;;1.20;;
21825;SDS011;11075;47.944;11.776;2023-09-19T12:56:14;0.70;;;0.57;;
21825;SDS011;11075;47.944;11.776;2023-09-19T12:59:03;0.95;;;0.57;;
21825;SDS011;11075;47.944;11.776;2023-09-19T13:01:33;2.47;;;0.52;;
21825;SDS011;11075;47.944;11.776;2023-09-19T13:04:10;2.97;;;0.52;;
21825;SDS011;11075;47.944;11.776;2023-09-19T13:06:39;0.73;;;0.50;;
21825;SDS011;11075;47.944;11.776;2023-09-19T13:09:10;0.82;;;0.50;;
21825;SDS011;11075;47.944;11.776;2023-09-19T13:11:37;1.27;;;0.77;;
21825;SDS011;11075;47.944;11.776;2023-09-19T13:14:19;0.70;;;0.50;;
21825;SDS011;11075;47.944;11.776;2023-09-19T13:17:06;1.75;;;0.50;;
21825;SDS011;11075;47.944;11.776;2023-09-19T13:19:44;1.25;;;0.50;;
21825;SDS011;11075;47.944;11.776;2023-09-19T13:22:42;2.55;;;0.38;;
21825;SDS011;11075;47.944;11.776;2023-09-19T13:25:15;1.48;;;0.57;;
21825;SDS011;11075;47.944;11.776;2023-09-19T13:27:50;1.33;;;0.50;;
21825;SDS011;11075;47.944;11.776;2023-09-19T13:30:20;3.60;;;1.13;;
21825;SDS011;11075;47.944;11.776;2023-09-19T13:32:52;4.75;;;0.52;;
21825;SDS011;11075;47.944;11.776;2023-09-19T13:35:32;0.85;;;0.55;;
21825;SDS011;11075;47.944;11.776;2023-09-19T13:37:59;1.63;;;0.60;;
21825;SDS011;11075;47.944;11.776;2023-09-19T13:40:26;3.83;;;0.70;;
21825;SDS011;11075;47.944;11.776;2023-09-19T13:42:57;0.88;;;0.52;;
21825;SDS011;11075;47.944;11.776;2023-09-19T13:45:24;3.35;;;0.80;;
21825;SDS011;11075;47.944;11.776;2023-09-19T13:47:57;0.88;;;0.50;;
21825;SDS011;11075;47.944;11.776;2023-09-19T13:50:25;1.75;;;0.50;;
21825;SDS011;11075;47.944;11.776;2023-09-19T13:52:53;2.00;;;0.40;;
21825;SDS011;11075;47.944;11.776;2023-09-19T13:55:20;0.50;;;0.30;;
21825;SDS011;11075;47.944;11.776;2023-09-19T13:57:50;1.27;;;0.60;;
21825;SDS011;11075;47.944;11.776;2023-09-19T14:00:19;2.72;;;0.57;;
21825;SDS011;11075;47.944;11.776;2023-09-19T14:02:45;2.58;;;0.60;;
21825;SDS011;11075;47.944;11.776;2023-09-19T14:05:15;0.45;;;0.40;;
21825;SDS011;11075;47.944;11.776;2023-09-19T14:07:43;1.02;;;0.50;;
21825;SDS011;11075;47.944;11.776;2023-09-19T14:10:10;0.73;;;0.60;;
21825;SDS011;11075;47.944;11.776;2023-09-19T14:12:38;1.85;;;0.50;;
21825;SDS011;11075;47.944;11.776;2023-09-19T14:15:07;0.40;;;0.40;;
21825;SDS011;11075;47.944;11.776;2023-09-19T14:17:35;1.35;;;0.50;;
21825;SDS011;11075;47.944;11.776;2023-09-19T14:20:02;0.50;;;0.50;;
21825;SDS011;11075;47.944;11.776;2023-09-19T14:22:31;1.30;;;0.50;;
21825;SDS011;11075;47.944;11.776;2023-09-19T14:24:58;0.50;;;0.50;;
21825;SDS011;11075;47.944;11.776;2023-09-19T14:27:26;0.47;;;0.45;;
21825;SDS011;11075;47.944;11.776;2023-09-19T14:29:52;3.35;;;0.50;;
21825;SDS011;11075;47.944;11.776;2023-09-19T14:32:19;1.65;;;0.50;;
21825;SDS011;11075;47.944;11.776;2023-09-19T14:34:46;2.75;;;0.40;;
21825;SDS011;11075;47.944;11.776;2023-09-19T14:37:13;0.98;;;0.50;;
21825;SDS011;11075;47.944;11.776;2023-09-19T14:39:40;1.20;;;0.60;;
21825;SDS011;11075;47.944;11.776;2023-09-19T14:42:11;1.42;;;0.70;;
21825;SDS011;11075;47.944;11.776;2023-09-19T14:44:39;2.75;;;0.40;;
21825;SDS011;11075;47.944;11.776;2023-09-19T14:47:06;6.53;;;0.68;;
21825;SDS011;11075;47.944;11.776;2023-09-19T14:49:34;3.13;;;0.40;;
21825;SDS011;11075;47.944;11.776;2023-09-19T14:52:03;0.82;;;0.50;;
21825;SDS011;11075;47.944;11.776;2023-09-19T14:54:30;0.30;;;0.30;;
21825;SDS011;11075;47.944;11.776;2023-09-19T14:56:57;3.03;;;0.68;;
21825;SDS011;11075;47.944;11.776;2023-09-19T14:59:31;0.50;;;0.45;;
21825;SDS011;11075;47.944;11.776;2023-09-19T15:01:58;2.38;;;0.20;;
21825;SDS011;11075;47.944;11.776;2023-09-19T15:04:26;1.08;;;0.50;;
21825;SDS011;11075;47.944;11.776;2023-09-19T15:06:54;2.60;;;0.40;;
21825;SDS011;11075;47.944;11.776;2023-09-19T15:09:22;0.68;;;0.40;;
21825;SDS011;11075;47.944;11.776;2023-09-19T15:11:53;0.57;;;0.40;;
21825;SDS011;11075;47.944;11.776;2023-09-19T15:14:20;0.82;;;0.25;;
21825;SDS011;11075;47.944;11.776;2023-09-19T15:16:51;1.13;;;0.55;;
21825;SDS011;11075;47.944;11.776;2023-09-19T15:19:18;2.13;;;0.40;;
21825;SDS011;11075;47.944;11.776;2023-09-19T15:21:45;0.50;;;0.50;;
21825;SDS011;11075;47.944;11.776;2023-09-19T15:24:12;1.17;;;0.47;;
21825;SDS011;11075;47.944;11.776;2023-09-19T15:26:39;0.30;;;0.20;;
21825;SDS011;11075;47.944;11.776;2023-09-19T15:29:09;3.45;;;0.90;;
21825;SDS011;11075;47.944;11.776;2023-09-19T15:31:36;3.80;;;1.08;;
21825;SDS011;11075;47.944;11.776;2023-09-19T15:34:04;1.00;;;0.50;;
21825;SDS011;11075;47.944;11.776;2023-09-19T15:36:32;1.13;;;0.40;;
21825;SDS011;11075;47.944;11.776;2023-09-19T15:41:30;11.93;;;3.25;;
21825;SDS011;11075;47.944;11.776;2023-09-19T15:43:59;4.93;;;1.48;;
21825;SDS011;11075;47.944;11.776;2023-09-19T15:46:28;2.00;;;0.60;;
21825;SDS011;11075;47.944;11.776;2023-09-19T15:48:57;2.72;;;0.65;;
21825;SDS011;11075;47.944;11.776;2023-09-19T15:51:24;1.95;;;0.75;;
21825;SDS011;11075;47.944;11.776;2023-09-19T15:53:52;1.70;;;0.75;;
21825;SDS011;11075;47.944;11.776;2023-09-19T15:56:20;2.35;;;0.35;;
21825;SDS011;11075;47.944;11.776;2023-09-19T15:58:47;1.25;;;0.40;;
21825;SDS011;11075;47.944;11.776;2023-09-19T16:01:16;0.50;;;0.50;;
21825;SDS011;11075;47.944;11.776;2023-09-19T16:03:46;0.90;;;0.55;;